Time;durP1;ratioP1;P1;durP2;ratioP2;P2;SDS_P1;SDS_P2;PMS_P1;PMS_P2;Temp;Humidity;BMP_temperature;BMP_pressure;BME280_temperature;BME280_humidity;BME280_pressure;Samples;Min_cycle;Max_cycle;Signal;HPM_P1;HPM_P2
2023/02/20 00:02:15;;;;;;;21.42;10.18;;;;;;;;;;5096057;28;20048;-67
2023/02/20 00:04:41;;;;;;;27.55;12.32;;;;;;;;;;5093620;28;20040;-67
2023/02/20 00:07:07;;;;;;;24.83;10.77;;;;;;;;;;5095718;28;20376;-67
2023/02/20 00:09:33;;;;;;;24.15;10.75;;;;;;;;;;5095993;28;20040;-67
2023/02/20 00:11:59;;;;;;;25.95;11.13;;;;;;;;;;5089197;28;20470;-67
2023/02/20 00:14:25;;;;;;;24.27;10.70;;;;;;;;;;5096864;28;20426;-67
2023/02/20 00:16:51;;;;;;;27.27;11.75;;;;;;;;;;5096046;28;20063;-67
2023/02/20 00:19:18;;;;;;;25.73;11.20;;;;;;;;;;5094036;28;20075;-67
2023/02/20 00:21:45;;;;;;;29.50;11.90;;;;;;;;;;5092622;28;20483;-67
2023/02/20 00:24:11;;;;;;;28.83;12.10;;;;;;;;;;5092280;28;20047;-67
2023/02/20 00:26:37;;;;;;;28.98;12.80;;;;;;;;;;5094468;28;21469;-67
2023/02/20 00:29:03;;;;;;;30.60;13.35;;;;;;;;;;5096713;28;20483;-67
2023/02/20 00:31:29;;;;;;;29.13;13.35;;;;;;;;;;5096847;28;20487;-67
2023/02/20 00:33:56;;;;;;;29.23;13.77;;;;;;;;;;5074974;28;20123;-67
2023/02/20 00:36:22;;;;;;;31.15;13.00;;;;;;;;;;5096352;28;20044;-67
2023/02/20 00:38:48;;;;;;;33.55;13.95;;;;;;;;;;5093582;28;20043;-67
2023/02/20 00:41:16;;;;;;;30.17;13.95;;;;;;;;;;5095169;28;20053;-67
2023/02/20 00:43:42;;;;;;;39.38;13.48;;;;;;;;;;5077020;28;20056;-67
2023/02/20 00:46:11;;;;;;;29.05;13.63;;;;;;;;;;5072533;28;20105;-67
2023/02/20 00:48:37;;;;;;;25.83;13.50;;;;;;;;;;5088990;28;20105;-67
2023/02/20 00:51:04;;;;;;;30.77;14.15;;;;;;;;;;5091242;28;20047;-67
2023/02/20 00:53:30;;;;;;;27.52;13.45;;;;;;;;;;5074085;28;20122;-67
2023/02/20 00:55:56;;;;;;;30.65;15.52;;;;;;;;;;5073275;28;20131;-67
2023/02/20 00:58:22;;;;;;;28.55;14.18;;;;;;;;;;5088686;28;20044;-67
2023/02/20 01:00:48;;;;;;;30.77;14.10;;;;;;;;;;5093325;28;20096;-68
2023/02/20 01:03:14;;;;;;;32.50;15.50;;;;;;;;;;5094151;28;20074;-67
2023/02/20 01:05:41;;;;;;;32.45;13.65;;;;;;;;;;5094644;28;20036;-67
2023/02/20 01:08:07;;;;;;;30.25;13.75;;;;;;;;;;5091585;28;20063;-67
2023/02/20 01:10:33;;;;;;;28.15;14.15;;;;;;;;;;5092654;28;20491;-67
2023/02/20 01:12:59;;;;;;;29.00;14.15;;;;;;;;;;5091843;28;20501;-67
2023/02/20 01:15:25;;;;;;;30.05;13.80;;;;;;;;;;5089966;28;20435;-67
2023/02/20 01:17:51;;;;;;;32.15;14.40;;;;;;;;;;5091358;28;20049;-67
2023/02/20 01:20:18;;;;;;;30.80;13.95;;;;;;;;;;5092654;28;20157;-67
2023/02/20 01:22:44;;;;;;;29.15;12.75;;;;;;;;;;5092411;28;20044;-67
2023/02/20 01:25:10;;;;;;;28.90;13.05;;;;;;;;;;5092259;28;20053;-67
2023/02/20 01:27:36;;;;;;;28.58;13.40;;;;;;;;;;5094850;28;20199;-67
2023/02/20 01:30:02;;;;;;;30.60;13.32;;;;;;;;;;5088667;28;20059;-67
2023/02/20 01:32:28;;;;;;;24.23;12.60;;;;;;;;;;5095811;28;20043;-67
2023/02/20 01:34:54;;;;;;;29.27;12.90;;;;;;;;;;5088951;28;20474;-67
2023/02/20 01:37:21;;;;;;;26.60;11.85;;;;;;;;;;5092814;28;20356;-67
2023/02/20 01:39:47;;;;;;;23.27;10.77;;;;;;;;;;5092903;28;20185;-67
2023/02/20 01:42:16;;;;;;;25.92;12.23;;;;;;;;;;5075644;28;20044;-67
2023/02/20 01:44:42;;;;;;;31.38;12.40;;;;;;;;;;5093643;28;20399;-67
2023/02/20 01:47:12;;;;;;;26.38;11.70;;;;;;;;;;5097048;28;20055;-67
2023/02/20 01:49:40;;;;;;;28.10;11.65;;;;;;;;;;5073824;28;20044;-67
2023/02/20 01:52:10;;;;;;;25.25;12.63;;;;;;;;;;5090014;28;20054;-67
2023/02/20 01:54:39;;;;;;;26.70;12.82;;;;;;;;;;5095994;28;20521;-67
2023/02/20 01:57:07;;;;;;;32.15;12.05;;;;;;;;;;5094075;28;20476;-67
2023/02/20 01:59:35;;;;;;;31.05;12.85;;;;;;;;;;5096644;28;20108;-66
2023/02/20 02:02:02;;;;;;;29.42;12.70;;;;;;;;;;5096805;28;20114;-67
2023/02/20 02:04:28;;;;;;;31.08;12.98;;;;;;;;;;5096610;28;20407;-67
2023/02/20 02:06:55;;;;;;;27.70;12.65;;;;;;;;;;5082122;28;20059;-67
2023/02/20 02:09:30;;;;;;;28.83;13.30;;;;;;;;;;5101339;28;20036;-67
2023/02/20 02:11:56;;;;;;;30.02;12.68;;;;;;;;;;5098460;28;20117;-67
2023/02/20 02:14:22;;;;;;;28.63;13.13;;;;;;;;;;5097755;28;20036;-67
2023/02/20 02:16:58;;;;;;;23.60;13.23;;;;;;;;;;5080939;28;20044;-67
2023/02/20 02:19:29;;;;;;;28.25;13.30;;;;;;;;;;5099934;28;20071;-67
2023/02/20 02:22:14;;;;;;;30.35;13.52;;;;;;;;;;5080610;28;20052;-67
2023/02/20 02:24:50;;;;;;;37.22;13.32;;;;;;;;;;5073657;28;20428;-67
2023/02/20 02:27:25;;;;;;;31.10;12.73;;;;;;;;;;5098150;28;20126;-67
2023/02/20 02:30:02;;;;;;;32.88;13.20;;;;;;;;;;5075951;28;20048;-67
2023/02/20 02:32:28;;;;;;;29.98;12.52;;;;;;;;;;5095682;28;20044;-67
2023/02/20 02:34:57;;;;;;;29.35;14.43;;;;;;;;;;5094383;28;20085;-68
2023/02/20 02:37:27;;;;;;;30.73;12.38;;;;;;;;;;5078547;28;20436;-67
2023/02/20 02:40:02;;;;;;;35.35;14.15;;;;;;;;;;5090760;28;20382;-67
2023/02/20 02:42:41;;;;;;;31.65;14.07;;;;;;;;;;5095216;28;20055;-67
2023/02/20 02:45:12;;;;;;;32.17;14.18;;;;;;;;;;5099139;28;20126;-67
2023/02/20 02:47:45;;;;;;;31.35;14.18;;;;;;;;;;5093771;28;20047;-67
2023/02/20 02:50:16;;;;;;;37.97;13.60;;;;;;;;;;5099868;28;20045;-67
2023/02/20 02:52:49;;;;;;;27.73;13.38;;;;;;;;;;5079888;28;20099;-67
2023/02/20 02:55:20;;;;;;;33.88;14.23;;;;;;;;;;5091624;28;20059;-67
2023/02/20 02:57:47;;;;;;;33.55;13.98;;;;;;;;;;5081289;28;20046;-67
2023/02/20 03:00:17;;;;;;;42.65;14.15;;;;;;;;;;5076973;28;20048;-67
2023/02/20 03:02:58;;;;;;;31.95;14.18;;;;;;;;;;5092439;28;20036;-67
2023/02/20 03:05:34;;;;;;;30.40;13.80;;;;;;;;;;5096977;28;20040;-67
2023/02/20 03:08:00;;;;;;;38.85;14.20;;;;;;;;;;5099146;28;20120;-67
2023/02/20 03:10:30;;;;;;;38.80;13.75;;;;;;;;;;5091891;28;20036;-67
2023/02/20 03:12:59;;;;;;;41.42;15.10;;;;;;;;;;5100112;28;20089;-67
2023/02/20 03:15:34;;;;;;;36.53;12.68;;;;;;;;;;5094660;28;20082;-67
2023/02/20 03:18:04;;;;;;;45.55;14.48;;;;;;;;;;5076405;28;20039;-67
2023/02/20 03:20:31;;;;;;;37.92;13.27;;;;;;;;;;5094278;28;20040;-67
2023/02/20 03:22:59;;;;;;;46.22;12.73;;;;;;;;;;5084656;28;20387;-67
2023/02/20 03:25:27;;;;;;;36.45;12.55;;;;;;;;;;5098155;28;20037;-67
2023/02/20 03:27:53;;;;;;;36.63;12.50;;;;;;;;;;5096040;28;20627;-67
2023/02/20 03:30:28;;;;;;;41.72;12.40;;;;;;;;;;5096803;28;20519;-67
2023/02/20 03:44:02;;;;;;;39.28;10.80;;;;;;;;;;5097030;28;20163;-67
2023/02/20 03:46:31;;;;;;;41.35;10.30;;;;;;;;;;5095976;28;20123;-67
2023/02/20 03:49:00;;;;;;;36.28;9.30;;;;;;;;;;5098186;28;20052;-67
2023/02/20 03:51:26;;;;;;;35.53;9.48;;;;;;;;;;5076984;28;20048;-67
2023/02/20 03:53:53;;;;;;;30.83;8.50;;;;;;;;;;5078056;28;20451;-67
2023/02/20 03:56:23;;;;;;;33.97;9.93;;;;;;;;;;5074522;28;20131;-67
2023/02/20 03:58:54;;;;;;;32.92;9.45;;;;;;;;;;5095063;28;20077;-67
2023/02/20 04:01:21;;;;;;;30.33;9.57;;;;;;;;;;5092075;28;20047;-67
2023/02/20 04:03:49;;;;;;;27.88;8.55;;;;;;;;;;5090417;28;20144;-67
2023/02/20 04:06:16;;;;;;;30.20;9.05;;;;;;;;;;5092538;28;20054;-67
2023/02/20 04:08:52;;;;;;;42.50;7.70;;;;;;;;;;5095311;28;20067;-67
2023/02/20 04:11:21;;;;;;;36.17;9.50;;;;;;;;;;5097081;28;20065;-67
2023/02/20 04:13:48;;;;;;;46.78;11.23;;;;;;;;;;5097918;28;20441;-67
2023/02/20 04:16:14;;;;;;;33.33;9.52;;;;;;;;;;5093351;28;20035;-67
2023/02/20 04:18:40;;;;;;;54.97;10.77;;;;;;;;;;5091799;28;20047;-67
2023/02/20 04:21:13;;;;;;;25.23;8.40;;;;;;;;;;5078844;28;20048;-67
2023/02/20 04:23:41;;;;;;;38.53;9.85;;;;;;;;;;5097010;28;20252;-67
2023/02/20 04:26:17;;;;;;;26.67;8.55;;;;;;;;;;5095615;28;20051;-67
2023/02/20 04:28:43;;;;;;;29.13;9.02;;;;;;;;;;5092602;28;20047;-67
2023/02/20 04:31:11;;;;;;;40.53;10.05;;;;;;;;;;5090426;28;20160;-67
2023/02/20 04:33:37;;;;;;;30.90;8.98;;;;;;;;;;5071634;28;20109;-67
2023/02/20 04:36:04;;;;;;;28.63;8.50;;;;;;;;;;5093565;28;20430;-67
2023/02/20 04:38:30;;;;;;;35.03;11.52;;;;;;;;;;5092895;28;20135;-67
2023/02/20 04:40:56;;;;;;;31.77;8.43;;;;;;;;;;5093445;28;20055;-67
2023/02/20 04:43:22;;;;;;;34.22;9.82;;;;;;;;;;5076077;28;20055;-67
2023/02/20 04:45:48;;;;;;;29.10;9.15;;;;;;;;;;5064072;28;20432;-67
2023/02/20 04:48:15;;;;;;;28.90;8.32;;;;;;;;;;5101428;28;20440;-67
2023/02/20 04:50:41;;;;;;;28.60;8.88;;;;;;;;;;5097494;28;20051;-67
2023/02/20 04:53:07;;;;;;;25.08;8.35;;;;;;;;;;5097240;28;20153;-67
2023/02/20 04:55:33;;;;;;;38.90;8.50;;;;;;;;;;5094693;28;20093;-67
2023/02/20 04:57:59;;;;;;;35.35;7.25;;;;;;;;;;5095344;28;20040;-67
2023/02/20 05:00:26;;;;;;;33.75;9.55;;;;;;;;;;5092391;28;20499;-67
2023/02/20 05:02:52;;;;;;;30.25;8.02;;;;;;;;;;5098764;28;20063;-67
2023/02/20 05:05:21;;;;;;;25.45;7.85;;;;;;;;;;5091800;28;20073;-67
2023/02/20 05:07:47;;;;;;;33.30;8.50;;;;;;;;;;5091725;28;20086;-67
2023/02/20 05:10:16;;;;;;;31.17;8.60;;;;;;;;;;5077799;28;20044;-67
2023/02/20 05:12:42;;;;;;;29.23;8.55;;;;;;;;;;5095036;28;20566;-67
2023/02/20 05:15:08;;;;;;;35.45;8.25;;;;;;;;;;5089487;28;20421;-67
2023/02/20 05:17:35;;;;;;;25.05;8.57;;;;;;;;;;5092416;28;20047;-67
2023/02/20 05:20:01;;;;;;;30.75;8.40;;;;;;;;;;5090952;28;20081;-67
2023/02/20 05:22:27;;;;;;;31.33;7.88;;;;;;;;;;5093333;28;20051;-67
2023/02/20 05:24:54;;;;;;;30.17;8.55;;;;;;;;;;5096002;28;20035;-67
2023/02/20 05:27:21;;;;;;;32.90;9.52;;;;;;;;;;5093492;28;20051;-67
2023/02/20 05:29:48;;;;;;;34.00;8.65;;;;;;;;;;5094264;28;20066;-67
2023/02/20 05:32:15;;;;;;;28.42;8.32;;;;;;;;;;5091421;28;20032;-67
2023/02/20 05:34:42;;;;;;;31.92;8.73;;;;;;;;;;5095172;28;20043;-67
2023/02/20 05:37:09;;;;;;;31.98;8.27;;;;;;;;;;5097675;28;20559;-67
2023/02/20 05:39:35;;;;;;;28.45;8.02;;;;;;;;;;5094188;28;20273;-67
2023/02/20 05:42:01;;;;;;;33.10;8.60;;;;;;;;;;5094951;28;20056;-67
2023/02/20 05:44:27;;;;;;;32.15;8.40;;;;;;;;;;5094741;28;20039;-67
2023/02/20 05:46:54;;;;;;;28.90;8.45;;;;;;;;;;5100491;28;20044;-67
2023/02/20 05:49:21;;;;;;;34.63;8.48;;;;;;;;;;5101105;28;20071;-67
2023/02/20 05:51:49;;;;;;;25.75;8.45;;;;;;;;;;5100515;28;20054;-67
2023/02/20 05:54:15;;;;;;;30.13;8.77;;;;;;;;;;5077829;28;20062;-67
2023/02/20 05:56:42;;;;;;;29.92;8.40;;;;;;;;;;5091524;28;20400;-67
2023/02/20 05:59:08;;;;;;;33.03;8.75;;;;;;;;;;5095039;28;20040;-67
2023/02/20 06:01:34;;;;;;;26.80;8.07;;;;;;;;;;5080224;28;20039;-67
2023/02/20 06:04:01;;;;;;;21.98;7.75;;;;;;;;;;5094495;28;20083;-68
2023/02/20 06:06:34;;;;;;;26.77;9.52;;;;;;;;;;5097882;28;20054;-67
2023/02/20 06:09:00;;;;;;;31.30;9.27;;;;;;;;;;5101430;28;20115;-66
2023/02/20 06:11:26;;;;;;;21.90;8.60;;;;;;;;;;5099738;28;20429;-68
2023/02/20 06:13:52;;;;;;;33.17;8.25;;;;;;;;;;5097512;28;20042;-68
2023/02/20 06:16:26;;;;;;;27.25;7.57;;;;;;;;;;5098845;28;20052;-68
2023/02/20 06:18:53;;;;;;;39.22;9.32;;;;;;;;;;5099133;28;20121;-68
2023/02/20 06:21:22;;;;;;;31.60;9.30;;;;;;;;;;5096954;28;20056;-68
2023/02/20 06:23:48;;;;;;;34.30;9.95;;;;;;;;;;5094788;28;20044;-68
2023/02/20 06:26:15;;;;;;;29.65;7.90;;;;;;;;;;5096329;28;20039;-68
2023/02/20 06:28:41;;;;;;;22.25;8.43;;;;;;;;;;5098930;28;20051;-68
2023/02/20 06:31:08;;;;;;;28.95;11.05;;;;;;;;;;5099594;28;20126;-68
2023/02/20 06:33:34;;;;;;;27.70;8.05;;;;;;;;;;5080480;28;20043;-68
2023/02/20 06:36:00;;;;;;;25.58;9.27;;;;;;;;;;5079979;28;20039;-68
2023/02/20 06:38:26;;;;;;;31.60;8.35;;;;;;;;;;5080841;28;20036;-68
2023/02/20 06:40:53;;;;;;;25.60;8.68;;;;;;;;;;5095576;28;20131;-67
2023/02/20 06:43:19;;;;;;;25.77;9.27;;;;;;;;;;5095641;28;20086;-67
2023/02/20 06:45:45;;;;;;;21.30;8.18;;;;;;;;;;5079026;28;21876;-67
2023/02/20 06:48:13;;;;;;;28.55;9.15;;;;;;;;;;5097740;28;20044;-67
2023/02/20 06:50:39;;;;;;;25.65;9.55;;;;;;;;;;5095335;28;20048;-67
2023/02/20 06:53:06;;;;;;;28.45;10.00;;;;;;;;;;5073332;28;20047;-67
2023/02/20 06:55:33;;;;;;;30.85;8.43;;;;;;;;;;5095256;28;20055;-67
2023/02/20 06:57:59;;;;;;;24.88;8.30;;;;;;;;;;5094172;28;20432;-67
2023/02/20 07:00:25;;;;;;;30.98;8.93;;;;;;;;;;5079003;28;20052;-67
2023/02/20 07:02:51;;;;;;;23.85;9.25;;;;;;;;;;5095997;28;20043;-67
2023/02/20 07:05:17;;;;;;;27.90;8.82;;;;;;;;;;5094854;28;20054;-67
2023/02/20 07:07:44;;;;;;;24.13;9.60;;;;;;;;;;5094621;28;20058;-67
2023/02/20 07:10:10;;;;;;;30.52;8.82;;;;;;;;;;5092590;28;20728;-67
2023/02/20 07:12:37;;;;;;;16.33;7.75;;;;;;;;;;5094301;28;20851;-67
2023/02/20 07:15:04;;;;;;;30.40;9.30;;;;;;;;;;5092264;28;20427;-66
2023/02/20 07:17:30;;;;;;;23.05;8.48;;;;;;;;;;5074536;28;20399;-67
2023/02/20 07:19:58;;;;;;;27.23;7.97;;;;;;;;;;5092549;28;20609;-67
2023/02/20 07:22:24;;;;;;;26.60;8.75;;;;;;;;;;5075246;28;20423;-68
2023/02/20 07:24:51;;;;;;;27.38;9.07;;;;;;;;;;5076702;28;20048;-67
2023/02/20 07:27:17;;;;;;;17.35;8.50;;;;;;;;;;5077668;28;20177;-67
2023/02/20 07:29:45;;;;;;;33.85;9.63;;;;;;;;;;5093298;28;20078;-67
2023/02/20 07:32:11;;;;;;;22.02;8.40;;;;;;;;;;5094452;28;20440;-67
2023/02/20 07:34:37;;;;;;;26.65;9.23;;;;;;;;;;5093258;28;20036;-67
2023/02/20 07:37:04;;;;;;;22.27;8.00;;;;;;;;;;5093417;28;20044;-67
2023/02/20 07:39:30;;;;;;;24.55;9.38;;;;;;;;;;5097205;28;20048;-67
2023/02/20 07:41:56;;;;;;;23.60;8.52;;;;;;;;;;5071654;28;20040;-67
2023/02/20 07:44:22;;;;;;;26.63;9.30;;;;;;;;;;5076341;28;20047;-67
2023/02/20 07:46:48;;;;;;;25.58;8.43;;;;;;;;;;5075465;28;20424;-67
2023/02/20 07:49:14;;;;;;;27.67;8.00;;;;;;;;;;5079064;28;20032;-67
2023/02/20 07:51:41;;;;;;;23.67;8.30;;;;;;;;;;5072871;28;20028;-67
2023/02/20 07:54:07;;;;;;;26.35;9.65;;;;;;;;;;5074653;28;20055;-67
2023/02/20 07:56:33;;;;;;;21.75;8.57;;;;;;;;;;5074792;28;20067;-67
2023/02/20 07:59:00;;;;;;;26.48;8.70;;;;;;;;;;5072849;28;20055;-67
2023/02/20 08:01:26;;;;;;;24.08;7.88;;;;;;;;;;5071153;28;20145;-67
2023/02/20 08:03:52;;;;;;;26.52;8.60;;;;;;;;;;5070658;28;20059;-67
2023/02/20 08:06:19;;;;;;;24.92;8.43;;;;;;;;;;5070095;28;20049;-67
2023/02/20 08:08:51;;;;;;;31.63;9.02;;;;;;;;;;5070227;28;20168;-67
2023/02/20 08:11:18;;;;;;;23.67;7.47;;;;;;;;;;5071422;28;20302;-67
2023/02/20 08:13:44;;;;;;;25.85;8.13;;;;;;;;;;5072166;28;20488;-67
2023/02/20 08:16:11;;;;;;;23.77;8.60;;;;;;;;;;5070655;28;20040;-68
2023/02/20 08:18:37;;;;;;;24.65;8.27;;;;;;;;;;5068900;28;20052;-67
2023/02/20 08:21:03;;;;;;;17.15;7.30;;;;;;;;;;5072735;28;20768;-67
2023/02/20 08:23:29;;;;;;;30.60;8.63;;;;;;;;;;5072417;28;20123;-68
2023/02/20 08:25:56;;;;;;;30.00;9.43;;;;;;;;;;5071905;28;20043;-66
2023/02/20 08:28:22;;;;;;;31.67;9.10;;;;;;;;;;5072133;28;20128;-67
2023/02/20 08:30:48;;;;;;;20.33;8.55;;;;;;;;;;5073443;28;20055;-67
2023/02/20 08:33:14;;;;;;;27.15;8.45;;;;;;;;;;5069727;28;20028;-66
2023/02/20 08:35:41;;;;;;;25.73;9.90;;;;;;;;;;5072794;28;20051;-67
2023/02/20 08:38:21;;;;;;;20.10;8.68;;;;;;;;;;5070572;28;20040;-67
2023/02/20 08:40:47;;;;;;;24.70;8.77;;;;;;;;;;5083838;28;20096;-71
2023/02/20 08:43:13;;;;;;;28.00;8.35;;;;;;;;;;5094736;28;20059;-67
2023/02/20 08:45:39;;;;;;;31.15;8.25;;;;;;;;;;5096829;28;20043;-66
2023/02/20 08:48:06;;;;;;;20.20;7.68;;;;;;;;;;5092328;28;20040;-67
2023/02/20 08:50:32;;;;;;;19.75;7.10;;;;;;;;;;5075583;28;20056;-66
2023/02/20 08:52:58;;;;;;;20.45;8.27;;;;;;;;;;5091885;28;20040;-67
2023/02/20 08:55:25;;;;;;;29.08;9.85;;;;;;;;;;5075497;28;20068;-66
2023/02/20 08:57:51;;;;;;;17.48;7.40;;;;;;;;;;5093475;28;20049;-67
2023/02/20 09:00:18;;;;;;;25.25;8.52;;;;;;;;;;5090659;28;20133;-67
2023/02/20 09:02:46;;;;;;;20.52;7.20;;;;;;;;;;5094141;28;20114;-67
2023/02/20 09:05:13;;;;;;;25.60;7.32;;;;;;;;;;5079638;28;20052;-67
2023/02/20 09:07:39;;;;;;;19.88;9.00;;;;;;;;;;5073405;28;20119;-67
2023/02/20 09:10:06;;;;;;;23.45;7.50;;;;;;;;;;5068927;28;20048;-67
2023/02/20 09:12:32;;;;;;;23.08;7.88;;;;;;;;;;5090522;28;20070;-67
2023/02/20 09:14:59;;;;;;;17.65;7.43;;;;;;;;;;5096564;28;20697;-67
2023/02/20 09:17:26;;;;;;;26.58;8.65;;;;;;;;;;5076909;28;20173;-66
2023/02/20 09:19:52;;;;;;;22.77;8.73;;;;;;;;;;5073849;28;20092;-67
2023/02/20 09:22:24;;;;;;;28.58;9.50;;;;;;;;;;5088903;28;20131;-67
2023/02/20 09:24:50;;;;;;;28.85;8.80;;;;;;;;;;5072176;28;20462;-67
2023/02/20 09:27:17;;;;;;;24.63;9.10;;;;;;;;;;5089732;28;20134;-67
2023/02/20 09:29:43;;;;;;;23.40;8.68;;;;;;;;;;5073951;28;20076;-66
2023/02/20 09:32:09;;;;;;;27.17;8.10;;;;;;;;;;5094006;28;20054;-66
2023/02/20 09:34:36;;;;;;;24.02;8.15;;;;;;;;;;5077963;28;20047;-66
2023/02/20 09:37:03;;;;;;;27.00;9.25;;;;;;;;;;5078960;28;20055;-66
2023/02/20 09:39:30;;;;;;;30.58;9.05;;;;;;;;;;5105036;28;20036;-67
2023/02/20 09:42:06;;;;;;;26.65;8.63;;;;;;;;;;5104721;28;20048;-66
2023/02/20 09:44:35;;;;;;;27.02;8.52;;;;;;;;;;5101177;28;20400;-67
2023/02/20 09:47:04;;;;;;;24.73;9.10;;;;;;;;;;5098012;28;20060;-67
2023/02/20 09:49:33;;;;;;;19.15;7.53;;;;;;;;;;5095555;28;20040;-67
2023/02/20 09:52:01;;;;;;;22.35;8.70;;;;;;;;;;5084586;28;20032;-66
2023/02/20 09:54:31;;;;;;;24.50;9.30;;;;;;;;;;5096050;28;20056;-67
2023/02/20 09:56:59;;;;;;;22.05;8.60;;;;;;;;;;5087713;28;20040;-66
2023/02/20 09:59:28;;;;;;;22.23;8.82;;;;;;;;;;5095677;28;20043;-67
2023/02/20 10:02:00;;;;;;;26.92;9.48;;;;;;;;;;5080208;28;20100;-66
2023/02/20 10:04:31;;;;;;;28.25;8.88;;;;;;;;;;5094484;28;20098;-66
2023/02/20 10:07:02;;;;;;;22.48;8.52;;;;;;;;;;5079336;28;20044;-66
2023/02/20 10:09:28;;;;;;;25.15;7.93;;;;;;;;;;5082243;28;20043;-66
2023/02/20 10:12:05;;;;;;;26.10;10.43;;;;;;;;;;5098266;28;20040;-66
2023/02/20 10:14:36;;;;;;;31.63;8.50;;;;;;;;;;5082519;28;20395;-67
2023/02/20 10:17:04;;;;;;;24.10;9.50;;;;;;;;;;5078123;28;20173;-67
2023/02/20 10:19:36;;;;;;;24.00;8.38;;;;;;;;;;5104085;28;20043;-66
2023/02/20 10:22:13;;;;;;;24.48;8.48;;;;;;;;;;5103365;28;20062;-65
2023/02/20 10:24:49;;;;;;;23.73;8.57;;;;;;;;;;5101673;28;20118;-65
2023/02/20 10:27:22;;;;;;;21.40;7.75;;;;;;;;;;5098271;28;20067;-65
2023/02/20 10:29:49;;;;;;;20.63;7.93;;;;;;;;;;5100860;28;20047;-66
2023/02/20 10:32:21;;;;;;;22.15;6.63;;;;;;;;;;5100611;28;20035;-66
2023/02/20 10:35:03;;;;;;;30.85;9.20;;;;;;;;;;5082478;28;20052;-65
2023/02/20 10:37:34;;;;;;;24.23;7.90;;;;;;;;;;5095711;28;20047;-65
2023/02/20 10:40:07;;;;;;;33.85;8.60;;;;;;;;;;5100086;28;20058;-66
2023/02/20 10:42:37;;;;;;;20.95;6.80;;;;;;;;;;5101179;28;20052;-65
2023/02/20 10:45:09;;;;;;;25.58;8.07;;;;;;;;;;5098892;28;20098;-66
2023/02/20 10:47:56;;;;;;;24.08;8.48;;;;;;;;;;5090072;28;20036;-66
2023/02/20 10:50:25;;;;;;;30.63;8.68;;;;;;;;;;5099381;28;20115;-66
2023/02/20 10:52:54;;;;;;;20.48;7.00;;;;;;;;;;5099933;28;20056;-66
2023/02/20 10:55:25;;;;;;;23.88;7.57;;;;;;;;;;5100466;28;20109;-66
2023/02/20 10:57:54;;;;;;;24.85;8.30;;;;;;;;;;5103305;28;20062;-66
2023/02/20 11:00:24;;;;;;;22.02;8.07;;;;;;;;;;5098478;28;20093;-66
2023/02/20 11:02:56;;;;;;;18.33;6.47;;;;;;;;;;5100737;28;21060;-66
2023/02/20 11:05:24;;;;;;;30.35;8.35;;;;;;;;;;5101872;28;20042;-65
2023/02/20 11:07:50;;;;;;;22.92;7.43;;;;;;;;;;5097334;28;20043;-65
2023/02/20 11:10:16;;;;;;;21.52;7.18;;;;;;;;;;5098207;28;20032;-65
2023/02/20 11:12:45;;;;;;;21.33;7.18;;;;;;;;;;5096137;28;20039;-66
2023/02/20 11:15:14;;;;;;;24.30;7.63;;;;;;;;;;5075223;28;20068;-66
2023/02/20 11:17:41;;;;;;;21.17;7.07;;;;;;;;;;5098717;28;20061;-66
2023/02/20 11:20:27;;;;;;;27.48;7.00;;;;;;;;;;5094897;28;20043;-66
2023/02/20 11:22:53;;;;;;;29.20;8.57;;;;;;;;;;5096750;28;20063;-66
2023/02/20 11:25:21;;;;;;;25.17;7.00;;;;;;;;;;5098749;28;20070;-66
2023/02/20 11:27:48;;;;;;;27.05;7.07;;;;;;;;;;5097226;28;20363;-66
2023/02/20 11:30:14;;;;;;;27.95;7.35;;;;;;;;;;5096192;28;20044;-66
2023/02/20 11:32:42;;;;;;;19.75;6.95;;;;;;;;;;5097156;28;20049;-66
2023/02/20 11:35:14;;;;;;;23.35;5.97;;;;;;;;;;5094100;28;20046;-66
2023/02/20 11:37:40;;;;;;;24.98;7.18;;;;;;;;;;5093404;28;20167;-66
2023/02/20 11:40:26;;;;;;;20.42;7.18;;;;;;;;;;5091191;28;20557;-66
2023/02/20 11:42:53;;;;;;;24.35;7.63;;;;;;;;;;5089581;28;20047;-66
2023/02/20 11:45:25;;;;;;;22.58;7.22;;;;;;;;;;5094307;28;20036;-66
2023/02/20 11:48:06;;;;;;;26.73;6.72;;;;;;;;;;5094388;28;20170;-65
2023/02/20 11:50:43;;;;;;;29.58;7.32;;;;;;;;;;5091290;28;20032;-65
2023/02/20 11:53:20;;;;;;;26.30;7.43;;;;;;;;;;5092887;28;20059;-65
2023/02/20 11:55:47;;;;;;;20.10;7.28;;;;;;;;;;5092727;28;20086;-65
2023/02/20 11:58:23;;;;;;;24.48;6.30;;;;;;;;;;5072612;28;20480;-66
2023/02/20 12:00:50;;;;;;;28.00;7.95;;;;;;;;;;5092205;28;20495;-65
2023/02/20 12:03:20;;;;;;;19.50;6.65;;;;;;;;;;5079476;28;20395;-65
2023/02/20 12:05:48;;;;;;;27.92;7.57;;;;;;;;;;5091408;28;20048;-65
2023/02/20 12:08:23;;;;;;;26.00;7.35;;;;;;;;;;5089595;28;20395;-65
2023/02/20 12:10:51;;;;;;;22.63;6.80;;;;;;;;;;5095617;28;20051;-66
2023/02/20 12:13:18;;;;;;;23.77;7.72;;;;;;;;;;5096296;28;20036;-66
2023/02/20 12:15:47;;;;;;;22.30;6.75;;;;;;;;;;5077903;28;20035;-65
2023/02/20 12:18:13;;;;;;;24.63;6.40;;;;;;;;;;5077326;28;20109;-66
2023/02/20 12:20:43;;;;;;;20.40;6.47;;;;;;;;;;5094080;28;21844;-66
2023/02/20 12:23:28;;;;;;;20.10;6.55;;;;;;;;;;5073926;28;20075;-66
2023/02/20 12:26:12;;;;;;;30.08;6.93;;;;;;;;;;5072677;28;20051;-65
2023/02/20 12:28:38;;;;;;;23.60;6.13;;;;;;;;;;5096614;28;20137;-66
2023/02/20 12:31:16;;;;;;;22.92;6.05;;;;;;;;;;5094063;28;20502;-66
2023/02/20 12:33:53;;;;;;;22.13;7.20;;;;;;;;;;5090507;28;20093;-66
2023/02/20 12:36:29;;;;;;;24.48;6.20;;;;;;;;;;5077536;28;20044;-65
2023/02/20 12:39:01;;;;;;;25.48;6.30;;;;;;;;;;5091913;28;20058;-65
2023/02/20 12:41:32;;;;;;;15.85;5.57;;;;;;;;;;5091008;28;20055;-65
2023/02/20 12:43:59;;;;;;;18.33;5.47;;;;;;;;;;5092059;28;20040;-66
2023/02/20 12:46:36;;;;;;;18.35;6.20;;;;;;;;;;5087786;28;20070;-66
2023/02/20 12:49:21;;;;;;;21.75;5.85;;;;;;;;;;5088818;28;20050;-66
2023/02/20 12:51:58;;;;;;;19.23;6.15;;;;;;;;;;5092633;28;20055;-66
2023/02/20 12:54:37;;;;;;;26.00;6.20;;;;;;;;;;5092240;28;20050;-66
2023/02/20 12:57:04;;;;;;;21.52;5.35;;;;;;;;;;5077776;28;20044;-66
2023/02/20 12:59:34;;;;;;;24.95;5.95;;;;;;;;;;5089806;28;20693;-66
2023/02/20 13:02:12;;;;;;;32.78;6.93;;;;;;;;;;5094787;28;20201;-66
2023/02/20 13:04:44;;;;;;;20.75;5.10;;;;;;;;;;5090337;28;20078;-66
2023/02/20 13:07:18;;;;;;;18.35;5.63;;;;;;;;;;5089589;28;20042;-66
2023/02/20 13:09:44;;;;;;;;;;;;;;;;;;5069678;28;20055;-66
2023/02/20 13:12:12;;;;;;;22.67;5.35;;;;;;;;;;5067673;28;19920;-66
2023/02/20 13:14:57;;;;;;;24.05;6.53;;;;;;;;;;5088997;28;20067;-65
2023/02/20 13:17:28;;;;;;;19.30;5.47;;;;;;;;;;5086746;28;20098;-66
2023/02/20 13:20:00;;;;;;;26.65;5.88;;;;;;;;;;5088391;28;20432;-66
2023/02/20 13:22:26;;;;;;;20.58;6.90;;;;;;;;;;5086611;28;20043;-65
2023/02/20 13:24:52;;;;;;;23.95;6.85;;;;;;;;;;5090157;28;20359;-66
2023/02/20 13:27:31;;;;;;;21.45;7.60;;;;;;;;;;5088799;28;20182;-65
2023/02/20 13:30:17;;;;;;;19.42;6.60;;;;;;;;;;5089380;28;20065;-65
2023/02/20 13:32:44;;;;;;;19.70;5.72;;;;;;;;;;5092690;28;20036;-65
2023/02/20 13:35:29;;;;;;;18.63;5.80;;;;;;;;;;5069919;28;20044;-66
2023/02/20 13:37:56;;;;;;;16.88;5.75;;;;;;;;;;5094565;28;20437;-65
2023/02/20 13:40:28;;;;;;;22.15;6.45;;;;;;;;;;5088416;28;20411;-65
2023/02/20 13:43:18;;;;;;;20.70;5.88;;;;;;;;;;5090579;28;20048;-65
2023/02/20 13:45:45;;;;;;;20.90;6.30;;;;;;;;;;5088160;28;20040;-65
2023/02/20 13:48:30;;;;;;;23.80;6.03;;;;;;;;;;5093518;28;20433;-65
2023/02/20 13:51:15;;;;;;;21.20;6.00;;;;;;;;;;5074044;28;21367;-66
2023/02/20 13:53:41;;;;;;;23.50;6.53;;;;;;;;;;5097429;28;20293;-69
2023/02/20 13:56:31;;;;;;;21.70;5.75;;;;;;;;;;5082652;28;20067;-65
2023/02/20 13:58:58;;;;;;;21.75;5.75;;;;;;;;;;5098574;28;20040;-65
2023/02/20 14:01:24;;;;;;;19.63;5.97;;;;;;;;;;5101946;28;20070;-65
2023/02/20 14:04:01;;;;;;;20.67;7.35;;;;;;;;;;5080822;28;20044;-65
2023/02/20 14:06:28;;;;;;;20.73;5.95;;;;;;;;;;5091507;28;20051;-65
2023/02/20 14:09:06;;;;;;;22.73;6.35;;;;;;;;;;5096119;28;20046;-65
2023/02/20 14:11:34;;;;;;;21.17;6.22;;;;;;;;;;5093744;28;20047;-65
2023/02/20 14:14:04;;;;;;;20.48;6.65;;;;;;;;;;5096578;28;20047;-65
2023/02/20 14:16:32;;;;;;;17.55;6.45;;;;;;;;;;5075777;28;20044;-65
2023/02/20 14:18:59;;;;;;;20.95;6.50;;;;;;;;;;5094699;28;20087;-66
2023/02/20 14:21:26;;;;;;;22.65;6.45;;;;;;;;;;5094953;28;20043;-65
2023/02/20 14:23:53;;;;;;;25.83;6.30;;;;;;;;;;5093915;28;20100;-66
2023/02/20 14:26:22;;;;;;;23.77;7.03;;;;;;;;;;5094563;28;20335;-66
2023/02/20 14:28:50;;;;;;;25.80;5.80;;;;;;;;;;5094507;28;21021;-66
2023/02/20 14:31:37;;;;;;;17.85;6.22;;;;;;;;;;5092058;28;20373;-66
2023/02/20 14:34:04;;;;;;;25.98;6.63;;;;;;;;;;5072577;28;20119;-66
2023/02/20 14:36:56;;;;;;;19.52;5.82;;;;;;;;;;5094223;28;20047;-66
2023/02/20 14:39:24;;;;;;;22.55;6.63;;;;;;;;;;5094599;28;20070;-66
2023/02/20 14:41:55;;;;;;;19.92;5.20;;;;;;;;;;5099698;28;20241;-66
2023/02/20 14:44:22;;;;;;;19.83;5.78;;;;;;;;;;5093868;28;20119;-66
2023/02/20 14:46:50;;;;;;;19.88;5.78;;;;;;;;;;5100194;28;20031;-66
2023/02/20 14:49:23;;;;;;;17.48;5.63;;;;;;;;;;5091818;28;20044;-65